sensor_id;sensor_type;location;lat;lon;timestamp;temperature;humidity
11922;DHT22;6021;51.182;3.160;2022-10-17T00:01:49;14.90;99.90
11922;DHT22;6021;51.182;3.160;2022-10-17T00:04:21;14.80;99.90
11922;DHT22;6021;51.182;3.160;2022-10-17T00:12:06;14.90;99.90
11922;DHT22;6021;51.182;3.160;2022-10-17T00:14:41;14.90;99.90
11922;DHT22;6021;51.182;3.160;2022-10-17T00:17:12;15.00;99.90
11922;DHT22;6021;51.182;3.160;2022-10-17T00:19:43;15.00;99.90
11922;DHT22;6021;51.182;3.160;2022-10-17T00:22:12;15.00;99.90
11922;DHT22;6021;51.182;3.160;2022-10-17T00:24:40;15.10;99.90
11922;DHT22;6021;51.182;3.160;2022-10-17T00:27:09;15.00;99.90
11922;DHT22;6021;51.182;3.160;2022-10-17T00:29:40;15.10;99.90
11922;DHT22;6021;51.182;3.160;2022-10-17T00:32:10;15.00;99.90
11922;DHT22;6021;51.182;3.160;2022-10-17T00:34:38;15.10;99.90
11922;DHT22;6021;51.182;3.160;2022-10-17T00:37:06;15.10;99.90
11922;DHT22;6021;51.182;3.160;2022-10-17T00:39:35;15.20;99.90
11922;DHT22;6021;51.182;3.160;2022-10-17T00:42:03;15.30;99.90
11922;DHT22;6021;51.182;3.160;2022-10-17T00:47:05;15.30;99.90
11922;DHT22;6021;51.182;3.160;2022-10-17T00:49:38;15.40;99.90
11922;DHT22;6021;51.182;3.160;2022-10-17T00:52:14;15.50;99.90
11922;DHT22;6021;51.182;3.160;2022-10-17T00:55:09;15.50;99.90
11922;DHT22;6021;51.182;3.160;2022-10-17T00:57:34;15.50;99.90
11922;DHT22;6021;51.182;3.160;2022-10-17T01:00:08;15.60;99.90
11922;DHT22;6021;51.182;3.160;2022-10-17T01:02:45;15.60;99.90
11922;DHT22;6021;51.182;3.160;2022-10-17T01:05:15;15.80;99.90
11922;DHT22;6021;51.182;3.160;2022-10-17T01:07:46;15.80;99.90
11922;DHT22;6021;51.182;3.160;2022-10-17T01:10:20;15.90;99.90
11922;DHT22;6021;51.182;3.160;2022-10-17T01:13:16;16.00;99.90
11922;DHT22;6021;51.182;3.160;2022-10-17T01:22:48;16.10;99.90
11922;DHT22;6021;51.182;3.160;2022-10-17T01:28:00;16.10;99.90
11922;DHT22;6021;51.182;3.160;2022-10-17T01:36:10;16.20;99.90
11922;DHT22;6021;51.182;3.160;2022-10-17T01:38:52;16.20;99.90
11922;DHT22;6021;51.182;3.160;2022-10-17T01:41:43;16.20;99.90
11922;DHT22;6021;51.182;3.160;2022-10-17T01:47:19;16.40;99.90
11922;DHT22;6021;51.182;3.160;2022-10-17T01:49:50;16.30;99.90
11922;DHT22;6021;51.182;3.160;2022-10-17T01:52:24;16.30;99.90
11922;DHT22;6021;51.182;3.160;2022-10-17T01:54:57;16.40;99.90
11922;DHT22;6021;51.182;3.160;2022-10-17T01:57:30;16.30;99.90
11922;DHT22;6021;51.182;3.160;2022-10-17T02:00:04;16.30;99.90
11922;DHT22;6021;51.182;3.160;2022-10-17T02:02:40;16.70;99.90
11922;DHT22;6021;51.182;3.160;2022-10-17T02:05:10;16.60;99.90
11922;DHT22;6021;51.182;3.160;2022-10-17T02:07:43;16.50;99.90
11922;DHT22;6021;51.182;3.160;2022-10-17T02:10:20;16.50;99.90
11922;DHT22;6021;51.182;3.160;2022-10-17T02:12:53;16.60;99.90
11922;DHT22;6021;51.182;3.160;2022-10-17T02:24:14;16.70;99.90
11922;DHT22;6021;51.182;3.160;2022-10-17T02:29:27;16.80;99.90
11922;DHT22;6021;51.182;3.160;2022-10-17T02:32:34;16.80;99.90
11922;DHT22;6021;51.182;3.160;2022-10-17T02:34:49;16.80;99.90
11922;DHT22;6021;51.182;3.160;2022-10-17T02:37:24;16.80;99.90
11922;DHT22;6021;51.182;3.160;2022-10-17T02:39:55;16.70;99.90
11922;DHT22;6021;51.182;3.160;2022-10-17T02:42:24;16.80;99.90
11922;DHT22;6021;51.182;3.160;2022-10-17T02:45:13;16.90;99.90
11922;DHT22;6021;51.182;3.160;2022-10-17T02:48:03;16.80;99.90
11922;DHT22;6021;51.182;3.160;2022-10-17T02:53:47;16.90;99.90
11922;DHT22;6021;51.182;3.160;2022-10-17T02:58:55;16.90;99.90
11922;DHT22;6021;51.182;3.160;2022-10-17T03:01:19;16.90;99.90
11922;DHT22;6021;51.182;3.160;2022-10-17T03:06:24;16.90;99.90
11922;DHT22;6021;51.182;3.160;2022-10-17T03:08:52;16.80;99.90
11922;DHT22;6021;51.182;3.160;2022-10-17T03:11:20;16.90;99.90
11922;DHT22;6021;51.182;3.160;2022-10-17T03:13:58;16.80;99.90
11922;DHT22;6021;51.182;3.160;2022-10-17T03:16:26;16.90;99.90
11922;DHT22;6021;51.182;3.160;2022-10-17T03:18:55;17.00;99.90
11922;DHT22;6021;51.182;3.160;2022-10-17T03:21:24;16.90;99.90
11922;DHT22;6021;51.182;3.160;2022-10-17T03:26:23;17.00;99.90
11922;DHT22;6021;51.182;3.160;2022-10-17T03:28:53;16.80;99.90
11922;DHT22;6021;51.182;3.160;2022-10-17T03:31:22;16.90;99.90
11922;DHT22;6021;51.182;3.160;2022-10-17T03:33:52;16.80;99.90
11922;DHT22;6021;51.182;3.160;2022-10-17T03:36:22;16.90;99.90
11922;DHT22;6021;51.182;3.160;2022-10-17T03:38:54;16.70;99.90
11922;DHT22;6021;51.182;3.160;2022-10-17T03:41:24;16.80;99.90
11922;DHT22;6021;51.182;3.160;2022-10-17T03:43:53;16.90;99.90
11922;DHT22;6021;51.182;3.160;2022-10-17T03:46:23;16.80;99.90
11922;DHT22;6021;51.182;3.160;2022-10-17T03:48:51;16.90;99.90
11922;DHT22;6021;51.182;3.160;2022-10-17T03:51:19;16.90;99.90
11922;DHT22;6021;51.182;3.160;2022-10-17T03:53:48;16.90;99.90
11922;DHT22;6021;51.182;3.160;2022-10-17T03:56:19;16.90;99.90
11922;DHT22;6021;51.182;3.160;2022-10-17T03:58:47;16.90;99.90
11922;DHT22;6021;51.182;3.160;2022-10-17T04:03:54;17.00;99.90
11922;DHT22;6021;51.182;3.160;2022-10-17T04:06:25;16.80;99.90
11922;DHT22;6021;51.182;3.160;2022-10-17T04:08:54;17.10;99.90
11922;DHT22;6021;51.182;3.160;2022-10-17T04:11:24;17.00;99.90
11922;DHT22;6021;51.182;3.160;2022-10-17T04:13:54;17.10;99.90
11922;DHT22;6021;51.182;3.160;2022-10-17T04:16:24;17.10;99.90
11922;DHT22;6021;51.182;3.160;2022-10-17T04:18:57;17.00;99.90
11922;DHT22;6021;51.182;3.160;2022-10-17T04:21:33;17.10;99.90
11922;DHT22;6021;51.182;3.160;2022-10-17T04:24:05;17.10;99.90
11922;DHT22;6021;51.182;3.160;2022-10-17T04:26:34;17.10;99.90
11922;DHT22;6021;51.182;3.160;2022-10-17T04:29:03;17.20;99.90
11922;DHT22;6021;51.182;3.160;2022-10-17T04:31:41;17.20;99.90
11922;DHT22;6021;51.182;3.160;2022-10-17T04:34:11;17.10;99.90
11922;DHT22;6021;51.182;3.160;2022-10-17T04:39:12;17.10;99.90
11922;DHT22;6021;51.182;3.160;2022-10-17T04:41:43;17.10;99.90
11922;DHT22;6021;51.182;3.160;2022-10-17T04:46:43;17.10;99.90
11922;DHT22;6021;51.182;3.160;2022-10-17T04:49:11;17.20;99.90
11922;DHT22;6021;51.182;3.160;2022-10-17T04:51:39;17.10;99.90
11922;DHT22;6021;51.182;3.160;2022-10-17T04:54:08;17.20;99.90
11922;DHT22;6021;51.182;3.160;2022-10-17T04:56:36;17.20;99.90
11922;DHT22;6021;51.182;3.160;2022-10-17T04:59:04;17.00;99.90
11922;DHT22;6021;51.182;3.160;2022-10-17T05:01:33;17.00;99.90
11922;DHT22;6021;51.182;3.160;2022-10-17T05:06:37;17.10;99.90
11922;DHT22;6021;51.182;3.160;2022-10-17T05:09:06;17.20;99.90
11922;DHT22;6021;51.182;3.160;2022-10-17T05:11:34;17.10;99.90
11922;DHT22;6021;51.182;3.160;2022-10-17T05:14:02;16.90;99.90
11922;DHT22;6021;51.182;3.160;2022-10-17T05:16:31;17.10;99.90
11922;DHT22;6021;51.182;3.160;2022-10-17T05:19:02;16.90;99.90
11922;DHT22;6021;51.182;3.160;2022-10-17T05:21:31;17.10;99.90
11922;DHT22;6021;51.182;3.160;2022-10-17T05:24:01;17.30;99.90
11922;DHT22;6021;51.182;3.160;2022-10-17T05:26:29;17.10;99.90
11922;DHT22;6021;51.182;3.160;2022-10-17T05:28:59;17.00;99.90
11922;DHT22;6021;51.182;3.160;2022-10-17T05:31:29;17.00;99.90
11922;DHT22;6021;51.182;3.160;2022-10-17T05:34:02;16.90;99.90
11922;DHT22;6021;51.182;3.160;2022-10-17T05:36:31;16.90;99.90
11922;DHT22;6021;51.182;3.160;2022-10-17T05:38:59;17.00;99.90
11922;DHT22;6021;51.182;3.160;2022-10-17T05:41:28;17.00;99.90
11922;DHT22;6021;51.182;3.160;2022-10-17T05:43:56;17.10;99.90
11922;DHT22;6021;51.182;3.160;2022-10-17T05:46:26;17.20;99.90
11922;DHT22;6021;51.182;3.160;2022-10-17T05:48:54;17.10;99.90
11922;DHT22;6021;51.182;3.160;2022-10-17T05:51:24;17.10;99.90
11922;DHT22;6021;51.182;3.160;2022-10-17T05:53:55;17.40;99.90
11922;DHT22;6021;51.182;3.160;2022-10-17T05:56:26;17.50;99.90
11922;DHT22;6021;51.182;3.160;2022-10-17T06:04:22;17.50;99.90
11922;DHT22;6021;51.182;3.160;2022-10-17T06:09:27;17.30;99.90
11922;DHT22;6021;51.182;3.160;2022-10-17T06:11:56;17.40;99.90
11922;DHT22;6021;51.182;3.160;2022-10-17T06:14:25;17.30;99.90
11922;DHT22;6021;51.182;3.160;2022-10-17T06:16:57;17.10;99.90
11922;DHT22;6021;51.182;3.160;2022-10-17T06:19:26;17.30;99.90
11922;DHT22;6021;51.182;3.160;2022-10-17T06:21:57;17.20;99.90
11922;DHT22;6021;51.182;3.160;2022-10-17T06:24:26;17.00;99.90
11922;DHT22;6021;51.182;3.160;2022-10-17T06:26:59;17.00;99.90
11922;DHT22;6021;51.182;3.160;2022-10-17T06:32:06;17.00;99.90
11922;DHT22;6021;51.182;3.160;2022-10-17T06:34:38;16.90;99.90
11922;DHT22;6021;51.182;3.160;2022-10-17T06:37:10;16.80;99.90
11922;DHT22;6021;51.182;3.160;2022-10-17T06:39:43;16.70;99.90
11922;DHT22;6021;51.182;3.160;2022-10-17T06:42:12;16.70;99.90
11922;DHT22;6021;51.182;3.160;2022-10-17T06:44:41;16.60;99.90
11922;DHT22;6021;51.182;3.160;2022-10-17T06:47:11;16.50;99.90
11922;DHT22;6021;51.182;3.160;2022-10-17T06:49:39;16.60;99.90
11922;DHT22;6021;51.182;3.160;2022-10-17T06:52:10;16.60;99.90
11922;DHT22;6021;51.182;3.160;2022-10-17T06:54:41;16.50;99.90
11922;DHT22;6021;51.182;3.160;2022-10-17T06:57:15;16.50;99.90
11922;DHT22;6021;51.182;3.160;2022-10-17T06:59:43;16.50;99.90
11922;DHT22;6021;51.182;3.160;2022-10-17T07:02:14;16.50;99.90
11922;DHT22;6021;51.182;3.160;2022-10-17T07:07:22;16.40;99.90
11922;DHT22;6021;51.182;3.160;2022-10-17T07:12:37;16.50;99.90
11922;DHT22;6021;51.182;3.160;2022-10-17T07:15:11;16.40;99.90
11922;DHT22;6021;51.182;3.160;2022-10-17T07:17:47;16.50;99.90
11922;DHT22;6021;51.182;3.160;2022-10-17T07:20:20;16.50;99.90
11922;DHT22;6021;51.182;3.160;2022-10-17T07:22:51;16.60;99.90
11922;DHT22;6021;51.182;3.160;2022-10-17T07:25:22;16.50;99.90
11922;DHT22;6021;51.182;3.160;2022-10-17T07:35:53;16.20;99.90
11922;DHT22;6021;51.182;3.160;2022-10-17T07:38:29;16.20;99.90
11922;DHT22;6021;51.182;3.160;2022-10-17T07:41:01;16.20;99.90
11922;DHT22;6021;51.182;3.160;2022-10-17T07:56:29;16.50;99.90
11922;DHT22;6021;51.182;3.160;2022-10-17T07:59:00;16.50;99.90
11922;DHT22;6021;51.182;3.160;2022-10-17T08:01:28;16.50;99.90
11922;DHT22;6021;51.182;3.160;2022-10-17T08:03:56;16.50;99.90
11922;DHT22;6021;51.182;3.160;2022-10-17T08:06:25;16.60;99.90
11922;DHT22;6021;51.182;3.160;2022-10-17T08:08:54;16.50;99.90
11922;DHT22;6021;51.182;3.160;2022-10-17T08:11:24;16.40;99.90
11922;DHT22;6021;51.182;3.160;2022-10-17T08:13:52;16.40;99.90
11922;DHT22;6021;51.182;3.160;2022-10-17T08:16:25;16.50;99.90
11922;DHT22;6021;51.182;3.160;2022-10-17T08:24:05;16.60;99.90
11922;DHT22;6021;51.182;3.160;2022-10-17T08:26:47;16.50;99.90
11922;DHT22;6021;51.182;3.160;2022-10-17T08:29:15;16.60;99.90
11922;DHT22;6021;51.182;3.160;2022-10-17T08:31:44;16.60;99.90
11922;DHT22;6021;51.182;3.160;2022-10-17T08:34:12;16.60;99.90
11922;DHT22;6021;51.182;3.160;2022-10-17T08:36:42;16.60;99.90
11922;DHT22;6021;51.182;3.160;2022-10-17T08:39:22;16.70;99.90
11922;DHT22;6021;51.182;3.160;2022-10-17T08:55:46;16.70;99.90
11922;DHT22;6021;51.182;3.160;2022-10-17T08:58:23;16.70;99.90
11922;DHT22;6021;51.182;3.160;2022-10-17T09:19:32;16.40;99.90
11922;DHT22;6021;51.182;3.160;2022-10-17T09:22:11;16.30;99.90
11922;DHT22;6021;51.182;3.160;2022-10-17T09:24:51;16.30;99.90
11922;DHT22;6021;51.182;3.160;2022-10-17T09:27:31;16.20;99.90
11922;DHT22;6021;51.182;3.160;2022-10-17T09:30:49;16.20;99.90
11922;DHT22;6021;51.182;3.160;2022-10-17T09:32:35;16.10;99.90
11922;DHT22;6021;51.182;3.160;2022-10-17T09:35:11;16.00;99.90
11922;DHT22;6021;51.182;3.160;2022-10-17T09:37:41;16.10;99.90
11922;DHT22;6021;51.182;3.160;2022-10-17T09:40:17;16.00;99.90
11922;DHT22;6021;51.182;3.160;2022-10-17T09:45:24;16.00;99.90
11922;DHT22;6021;51.182;3.160;2022-10-17T09:50:48;16.00;99.90
11922;DHT22;6021;51.182;3.160;2022-10-17T09:53:33;16.20;99.90
11922;DHT22;6021;51.182;3.160;2022-10-17T09:56:00;16.40;99.90
11922;DHT22;6021;51.182;3.160;2022-10-17T09:58:39;16.60;99.90
11922;DHT22;6021;51.182;3.160;2022-10-17T10:01:29;16.50;99.90
11922;DHT22;6021;51.182;3.160;2022-10-17T10:04:15;16.50;99.90
11922;DHT22;6021;51.182;3.160;2022-10-17T10:07:03;16.50;99.90
11922;DHT22;6021;51.182;3.160;2022-10-17T10:09:39;16.60;99.90
11922;DHT22;6021;51.182;3.160;2022-10-17T10:12:21;16.60;99.90
11922;DHT22;6021;51.182;3.160;2022-10-17T10:14:39;16.50;99.90
11922;DHT22;6021;51.182;3.160;2022-10-17T10:23:16;16.60;99.90
11922;DHT22;6021;51.182;3.160;2022-10-17T10:25:55;16.70;99.90
11922;DHT22;6021;51.182;3.160;2022-10-17T10:28:38;16.80;99.90
11922;DHT22;6021;51.182;3.160;2022-10-17T10:31:12;16.90;99.90
11922;DHT22;6021;51.182;3.160;2022-10-17T10:49:31;16.90;99.90
11922;DHT22;6021;51.182;3.160;2022-10-17T10:52:04;17.10;99.90
11922;DHT22;6021;51.182;3.160;2022-10-17T10:54:41;17.10;99.90
11922;DHT22;6021;51.182;3.160;2022-10-17T10:57:19;17.20;99.90
11922;DHT22;6021;51.182;3.160;2022-10-17T11:02:53;17.30;99.90
11922;DHT22;6021;51.182;3.160;2022-10-17T11:08:26;17.10;99.90
11922;DHT22;6021;51.182;3.160;2022-10-17T11:11:27;17.00;99.90
11922;DHT22;6021;51.182;3.160;2022-10-17T11:14:18;17.20;99.90
11922;DHT22;6021;51.182;3.160;2022-10-17T11:19:36;17.00;99.90
11922;DHT22;6021;51.182;3.160;2022-10-17T11:22:14;17.10;99.90
11922;DHT22;6021;51.182;3.160;2022-10-17T11:25:13;17.10;99.90
11922;DHT22;6021;51.182;3.160;2022-10-17T11:27:35;17.10;99.90
11922;DHT22;6021;51.182;3.160;2022-10-17T11:30:04;17.10;99.90
11922;DHT22;6021;51.182;3.160;2022-10-17T11:32:44;17.10;99.90
11922;DHT22;6021;51.182;3.160;2022-10-17T11:35:28;17.20;99.90
11922;DHT22;6021;51.182;3.160;2022-10-17T11:38:26;17.10;99.90
11922;DHT22;6021;51.182;3.160;2022-10-17T11:40:55;17.00;99.90
11922;DHT22;6021;51.182;3.160;2022-10-17T11:43:44;17.10;99.90
11922;DHT22;6021;51.182;3.160;2022-10-17T11:46:18;17.10;99.90
11922;DHT22;6021;51.182;3.160;2022-10-17T11:49:14;17.10;99.90
11922;DHT22;6021;51.182;3.160;2022-10-17T11:51:47;17.00;99.90
11922;DHT22;6021;51.182;3.160;2022-10-17T11:54:20;17.10;99.90
11922;DHT22;6021;51.182;3.160;2022-10-17T11:59:47;17.10;99.90
11922;DHT22;6021;51.182;3.160;2022-10-17T12:03:04;17.00;99.90
11922;DHT22;6021;51.182;3.160;2022-10-17T12:05:17;17.10;99.90
11922;DHT22;6021;51.182;3.160;2022-10-17T12:07:57;16.90;99.90
11922;DHT22;6021;51.182;3.160;2022-10-17T12:18:51;16.90;99.90
11922;DHT22;6021;51.182;3.160;2022-10-17T12:21:19;16.80;99.90
11922;DHT22;6021;51.182;3.160;2022-10-17T12:23:52;16.90;99.90
11922;DHT22;6021;51.182;3.160;2022-10-17T12:26:28;16.80;99.90
11922;DHT22;6021;51.182;3.160;2022-10-17T12:28:57;16.90;99.90
11922;DHT22;6021;51.182;3.160;2022-10-17T12:31:26;17.00;99.90
11922;DHT22;6021;51.182;3.160;2022-10-17T12:34:03;17.10;99.90
11922;DHT22;6021;51.182;3.160;2022-10-17T12:46:50;17.10;99.90
11922;DHT22;6021;51.182;3.160;2022-10-17T12:54:57;17.20;99.90
11922;DHT22;6021;51.182;3.160;2022-10-17T13:03:17;17.30;99.90
11922;DHT22;6021;51.182;3.160;2022-10-17T13:05:54;17.20;99.90
11922;DHT22;6021;51.182;3.160;2022-10-17T13:08:25;17.20;99.90
11922;DHT22;6021;51.182;3.160;2022-10-17T13:10:50;17.10;99.90
11922;DHT22;6021;51.182;3.160;2022-10-17T13:13:43;17.10;99.90
11922;DHT22;6021;51.182;3.160;2022-10-17T13:16:42;17.00;99.90
11922;DHT22;6021;51.182;3.160;2022-10-17T13:19:13;17.10;99.90
11922;DHT22;6021;51.182;3.160;2022-10-17T13:21:55;17.00;99.90
11922;DHT22;6021;51.182;3.160;2022-10-17T13:24:29;17.20;99.90
11922;DHT22;6021;51.182;3.160;2022-10-17T13:26:58;17.20;99.90
11922;DHT22;6021;51.182;3.160;2022-10-17T13:29:28;17.20;99.90
11922;DHT22;6021;51.182;3.160;2022-10-17T13:32:00;17.30;99.90
11922;DHT22;6021;51.182;3.160;2022-10-17T13:34:31;17.20;99.90
11922;DHT22;6021;51.182;3.160;2022-10-17T13:37:02;17.10;99.90
11922;DHT22;6021;51.182;3.160;2022-10-17T13:39:40;17.10;99.90
11922;DHT22;6021;51.182;3.160;2022-10-17T13:42:22;17.20;99.90
11922;DHT22;6021;51.182;3.160;2022-10-17T13:44:51;17.30;99.90
11922;DHT22;6021;51.182;3.160;2022-10-17T13:47:28;17.30;99.90
11922;DHT22;6021;51.182;3.160;2022-10-17T13:49:57;17.20;99.90
11922;DHT22;6021;51.182;3.160;2022-10-17T13:52:28;17.20;99.90
11922;DHT22;6021;51.182;3.160;2022-10-17T13:55:05;17.20;99.90
11922;DHT22;6021;51.182;3.160;2022-10-17T13:57:34;17.20;99.90
11922;DHT22;6021;51.182;3.160;2022-10-17T14:00:10;17.20;99.90
11922;DHT22;6021;51.182;3.160;2022-10-17T14:02:34;17.30;99.90
11922;DHT22;6021;51.182;3.160;2022-10-17T14:07:39;17.10;99.90
11922;DHT22;6021;51.182;3.160;2022-10-17T14:10:21;17.10;99.90
11922;DHT22;6021;51.182;3.160;2022-10-17T14:12:50;17.20;99.90
11922;DHT22;6021;51.182;3.160;2022-10-17T14:15:26;17.10;99.90
11922;DHT22;6021;51.182;3.160;2022-10-17T14:17:58;17.10;99.90
11922;DHT22;6021;51.182;3.160;2022-10-17T14:20:28;17.10;99.90
11922;DHT22;6021;51.182;3.160;2022-10-17T14:22:57;17.10;99.90
11922;DHT22;6021;51.182;3.160;2022-10-17T14:25:31;17.10;99.90
11922;DHT22;6021;51.182;3.160;2022-10-17T14:30:51;17.00;99.90
11922;DHT22;6021;51.182;3.160;2022-10-17T14:33:22;17.00;99.90
11922;DHT22;6021;51.182;3.160;2022-10-17T14:35:53;17.10;99.90
11922;DHT22;6021;51.182;3.160;2022-10-17T14:38:22;17.10;99.90
11922;DHT22;6021;51.182;3.160;2022-10-17T14:40:54;17.20;99.90
11922;DHT22;6021;51.182;3.160;2022-10-17T14:43:24;17.20;99.90
11922;DHT22;6021;51.182;3.160;2022-10-17T14:45:57;17.30;99.90
11922;DHT22;6021;51.182;3.160;2022-10-17T14:48:27;17.20;99.90
11922;DHT22;6021;51.182;3.160;2022-10-17T14:51:11;17.20;99.90
11922;DHT22;6021;51.182;3.160;2022-10-17T14:53:43;17.10;99.90
11922;DHT22;6021;51.182;3.160;2022-10-17T14:56:22;17.30;99.90
11922;DHT22;6021;51.182;3.160;2022-10-17T14:58:50;17.30;99.90
11922;DHT22;6021;51.182;3.160;2022-10-17T15:01:19;17.20;99.90
11922;DHT22;6021;51.182;3.160;2022-10-17T15:03:47;17.20;99.90
11922;DHT22;6021;51.182;3.160;2022-10-17T15:06:22;17.10;99.90
11922;DHT22;6021;51.182;3.160;2022-10-17T15:08:50;17.20;99.90
11922;DHT22;6021;51.182;3.160;2022-10-17T15:11:18;17.10;99.90
11922;DHT22;6021;51.182;3.160;2022-10-17T15:13:46;17.20;99.90
11922;DHT22;6021;51.182;3.160;2022-10-17T15:18:49;17.20;99.90
11922;DHT22;6021;51.182;3.160;2022-10-17T15:21:20;17.10;99.90
11922;DHT22;6021;51.182;3.160;2022-10-17T15:23:49;17.10;99.90
11922;DHT22;6021;51.182;3.160;2022-10-17T15:26:27;17.10;99.90
11922;DHT22;6021;51.182;3.160;2022-10-17T15:28:55;17.20;99.90
11922;DHT22;6021;51.182;3.160;2022-10-17T15:31:25;17.10;99.90
11922;DHT22;6021;51.182;3.160;2022-10-17T15:33:54;17.10;99.90
11922;DHT22;6021;51.182;3.160;2022-10-17T15:36:32;17.20;99.90
11922;DHT22;6021;51.182;3.160;2022-10-17T15:39:00;17.00;99.90
11922;DHT22;6021;51.182;3.160;2022-10-17T15:41:30;17.10;99.90
11922;DHT22;6021;51.182;3.160;2022-10-17T15:43:59;17.00;99.90
11922;DHT22;6021;51.182;3.160;2022-10-17T15:46:32;17.00;99.90
11922;DHT22;6021;51.182;3.160;2022-10-17T15:49:03;17.00;99.90
11922;DHT22;6021;51.182;3.160;2022-10-17T15:51:33;16.90;99.90
11922;DHT22;6021;51.182;3.160;2022-10-17T15:54:02;16.90;99.90
11922;DHT22;6021;51.182;3.160;2022-10-17T15:56:40;16.90;99.90
11922;DHT22;6021;51.182;3.160;2022-10-17T15:59:10;16.90;99.90
11922;DHT22;6021;51.182;3.160;2022-10-17T16:01:38;16.90;99.90
11922;DHT22;6021;51.182;3.160;2022-10-17T16:04:11;16.90;99.90
11922;DHT22;6021;51.182;3.160;2022-10-17T16:06:41;16.80;99.90
11922;DHT22;6021;51.182;3.160;2022-10-17T16:09:10;16.80;99.90
11922;DHT22;6021;51.182;3.160;2022-10-17T16:11:42;16.80;99.90
11922;DHT22;6021;51.182;3.160;2022-10-17T16:14:13;16.80;99.90
11922;DHT22;6021;51.182;3.160;2022-10-17T16:16:42;16.90;99.90
11922;DHT22;6021;51.182;3.160;2022-10-17T16:19:11;16.90;99.90
11922;DHT22;6021;51.182;3.160;2022-10-17T16:21:40;16.90;99.90
11922;DHT22;6021;51.182;3.160;2022-10-17T16:24:11;16.90;99.90
11922;DHT22;6021;51.182;3.160;2022-10-17T16:26:40;16.90;99.90
11922;DHT22;6021;51.182;3.160;2022-10-17T16:29:08;16.90;99.90
11922;DHT22;6021;51.182;3.160;2022-10-17T16:31:39;17.00;99.90
11922;DHT22;6021;51.182;3.160;2022-10-17T16:34:13;17.00;99.90
11922;DHT22;6021;51.182;3.160;2022-10-17T16:36:42;17.10;99.90
11922;DHT22;6021;51.182;3.160;2022-10-17T16:39:10;16.90;99.90
11922;DHT22;6021;51.182;3.160;2022-10-17T16:41:38;16.80;99.90
11922;DHT22;6021;51.182;3.160;2022-10-17T16:44:10;16.70;99.90
11922;DHT22;6021;51.182;3.160;2022-10-17T16:46:40;16.70;99.90
11922;DHT22;6021;51.182;3.160;2022-10-17T16:49:09;16.60;99.90
11922;DHT22;6021;51.182;3.160;2022-10-17T16:51:38;16.50;99.90
11922;DHT22;6021;51.182;3.160;2022-10-17T16:54:07;16.50;99.90
11922;DHT22;6021;51.182;3.160;2022-10-17T16:56:35;16.40;99.90
11922;DHT22;6021;51.182;3.160;2022-10-17T16:59:04;16.50;99.90
11922;DHT22;6021;51.182;3.160;2022-10-17T17:01:32;16.60;99.90
11922;DHT22;6021;51.182;3.160;2022-10-17T17:04:00;16.80;99.90
11922;DHT22;6021;51.182;3.160;2022-10-17T17:06:30;17.00;99.90
11922;DHT22;6021;51.182;3.160;2022-10-17T17:08:59;16.90;99.90
11922;DHT22;6021;51.182;3.160;2022-10-17T17:11:28;16.90;99.90
11922;DHT22;6021;51.182;3.160;2022-10-17T17:13:58;16.80;99.90
11922;DHT22;6021;51.182;3.160;2022-10-17T17:16:29;16.70;99.90
11922;DHT22;6021;51.182;3.160;2022-10-17T17:19:03;16.60;99.90
11922;DHT22;6021;51.182;3.160;2022-10-17T17:21:33;16.70;99.90
11922;DHT22;6021;51.182;3.160;2022-10-17T17:24:02;16.70;99.90
11922;DHT22;6021;51.182;3.160;2022-10-17T17:26:33;16.60;99.90
11922;DHT22;6021;51.182;3.160;2022-10-17T17:29:05;16.60;99.90
11922;DHT22;6021;51.182;3.160;2022-10-17T17:31:34;16.50;99.90
11922;DHT22;6021;51.182;3.160;2022-10-17T17:34:05;16.40;99.90
11922;DHT22;6021;51.182;3.160;2022-10-17T17:36:35;16.30;99.90
11922;DHT22;6021;51.182;3.160;2022-10-17T17:39:06;16.30;99.90
11922;DHT22;6021;51.182;3.160;2022-10-17T17:41:35;16.20;99.90
11922;DHT22;6021;51.182;3.160;2022-10-17T17:44:04;16.20;99.90
11922;DHT22;6021;51.182;3.160;2022-10-17T17:46:33;16.20;99.90
11922;DHT22;6021;51.182;3.160;2022-10-17T17:49:01;16.20;99.90
11922;DHT22;6021;51.182;3.160;2022-10-17T17:51:29;16.20;99.90
11922;DHT22;6021;51.182;3.160;2022-10-17T17:53:57;16.20;99.90
11922;DHT22;6021;51.182;3.160;2022-10-17T17:56:27;16.10;99.90
11922;DHT22;6021;51.182;3.160;2022-10-17T18:04:10;16.00;99.90
11922;DHT22;6021;51.182;3.160;2022-10-17T18:06:39;16.00;99.90
11922;DHT22;6021;51.182;3.160;2022-10-17T18:09:07;15.90;99.90
11922;DHT22;6021;51.182;3.160;2022-10-17T18:11:36;15.90;99.90
11922;DHT22;6021;51.182;3.160;2022-10-17T18:14:07;16.00;99.90
11922;DHT22;6021;51.182;3.160;2022-10-17T18:16:36;16.00;99.90
11922;DHT22;6021;51.182;3.160;2022-10-17T18:19:06;16.00;99.90
11922;DHT22;6021;51.182;3.160;2022-10-17T18:21:38;15.90;99.90
11922;DHT22;6021;51.182;3.160;2022-10-17T18:24:07;15.90;99.90
11922;DHT22;6021;51.182;3.160;2022-10-17T18:26:35;15.90;99.90
11922;DHT22;6021;51.182;3.160;2022-10-17T18:29:04;15.90;99.90
11922;DHT22;6021;51.182;3.160;2022-10-17T18:31:32;15.90;99.90
11922;DHT22;6021;51.182;3.160;2022-10-17T18:34:02;15.90;99.90
11922;DHT22;6021;51.182;3.160;2022-10-17T18:36:32;16.10;99.90
11922;DHT22;6021;51.182;3.160;2022-10-17T18:39:01;16.30;99.90
11922;DHT22;6021;51.182;3.160;2022-10-17T18:41:29;16.20;99.90
11922;DHT22;6021;51.182;3.160;2022-10-17T18:43:58;16.00;99.90
11922;DHT22;6021;51.182;3.160;2022-10-17T18:46:34;15.90;99.90
11922;DHT22;6021;51.182;3.160;2022-10-17T18:48:57;15.80;99.90
11922;DHT22;6021;51.182;3.160;2022-10-17T18:51:26;15.60;99.90
11922;DHT22;6021;51.182;3.160;2022-10-17T18:53:55;15.50;99.90
11922;DHT22;6021;51.182;3.160;2022-10-17T18:56:25;15.40;99.90
11922;DHT22;6021;51.182;3.160;2022-10-17T18:58:53;15.40;99.90
11922;DHT22;6021;51.182;3.160;2022-10-17T19:01:24;15.40;99.90
11922;DHT22;6021;51.182;3.160;2022-10-17T19:03:54;15.40;99.90
11922;DHT22;6021;51.182;3.160;2022-10-17T19:06:28;15.50;99.90
11922;DHT22;6021;51.182;3.160;2022-10-17T19:08:59;15.50;99.90
11922;DHT22;6021;51.182;3.160;2022-10-17T19:11:30;15.40;99.90
11922;DHT22;6021;51.182;3.160;2022-10-17T19:14:00;15.50;99.90
11922;DHT22;6021;51.182;3.160;2022-10-17T19:16:31;15.50;99.90
11922;DHT22;6021;51.182;3.160;2022-10-17T19:19:11;15.50;99.90
11922;DHT22;6021;51.182;3.160;2022-10-17T19:21:34;15.50;99.90
11922;DHT22;6021;51.182;3.160;2022-10-17T19:24:05;15.40;99.90
11922;DHT22;6021;51.182;3.160;2022-10-17T19:26:34;15.40;99.90
11922;DHT22;6021;51.182;3.160;2022-10-17T19:29:04;15.50;99.90
11922;DHT22;6021;51.182;3.160;2022-10-17T19:31:33;15.50;99.90
11922;DHT22;6021;51.182;3.160;2022-10-17T19:34:02;15.60;99.90
11922;DHT22;6021;51.182;3.160;2022-10-17T19:36:33;15.90;99.90
11922;DHT22;6021;51.182;3.160;2022-10-17T19:39:04;15.90;99.90
11922;DHT22;6021;51.182;3.160;2022-10-17T19:41:32;15.80;99.90
11922;DHT22;6021;51.182;3.160;2022-10-17T19:44:02;15.70;99.90
11922;DHT22;6021;51.182;3.160;2022-10-17T19:46:31;15.60;99.90
11922;DHT22;6021;51.182;3.160;2022-10-17T19:49:00;15.50;99.90
11922;DHT22;6021;51.182;3.160;2022-10-17T19:51:29;15.70;99.90